Time;durP1;ratioP1;P1;durP2;ratioP2;P2;SDS_P1;SDS_P2;PMS_P1;PMS_P2;Temp;Humidity;BMP_temperature;BMP_pressure;BME280_temperature;BME280_humidity;BME280_pressure;Samples;Min_cycle;Max_cycle;Signal;HPM_P1;HPM_P2
2023/07/16 00:00:04;;;;;;;0.20;0.20;;;;;;;21.04;64.75;100400.47;5195611;28;20377;-84
2023/07/16 00:02:55;;;;;;;0.77;0.38;;;;;;;20.88;65.63;100405.25;5198318;28;20021;-84
2023/07/16 00:05:50;;;;;;;1.30;0.85;;;;;;;20.82;65.66;100411.06;5212483;28;20041;-84
2023/07/16 00:08:40;;;;;;;0.28;0.28;;;;;;;20.56;66.65;100414.69;5228399;28;20074;-84
2023/07/16 00:11:31;;;;;;;0.40;0.40;;;;;;;20.69;66.01;100417.31;5213968;28;20029;-84
2023/07/16 00:14:22;;;;;;;0.30;0.30;;;;;;;20.67;65.86;100416.56;5196495;28;20033;-85
2023/07/16 00:17:13;;;;;;;0.30;0.30;;;;;;;20.72;65.37;100414.38;5227364;28;20423;-84
2023/07/16 00:20:05;;;;;;;2.45;1.17;;;;;;;20.83;65.22;100418.94;5211583;28;20052;-84
2023/07/16 00:22:57;;;;;;;2.55;1.75;;;;;;;20.71;66.18;100425.19;5192540;28;20028;-84
2023/07/16 00:25:47;;;;;;;0.22;0.22;;;;;;;21.01;64.03;100429.19;5208334;28;20141;-85
2023/07/16 00:28:38;;;;;;;1.55;0.82;;;;;;;21.12;63.26;100428.38;5211356;28;20021;-86
2023/07/16 00:31:30;;;;;;;0.52;0.52;;;;;;;21.11;63.85;100422.19;5227665;28;20438;-84
2023/07/16 00:34:21;;;;;;;0.35;0.35;;;;;;;21.09;64.00;100428.63;5204599;28;20036;-84
2023/07/16 00:37:11;;;;;;;0.68;0.68;;;;;;;21.15;62.94;100429.00;5225721;28;20029;-85
2023/07/16 00:40:03;;;;;;;0.98;0.65;;;;;;;21.06;64.11;100425.22;5224868;28;20447;-85
2023/07/16 00:42:54;;;;;;;0.98;0.95;;;;;;;21.07;62.97;100429.59;5216409;28;20033;-85
2023/07/16 00:45:46;;;;;;;0.40;0.40;;;;;;;21.33;62.08;100425.88;5207968;28;20040;-85
2023/07/16 00:48:37;;;;;;;0.45;0.45;;;;;;;21.23;62.47;100431.94;5228082;28;20052;-84
2023/07/16 00:51:28;;;;;;;0.20;0.20;;;;;;;21.28;61.39;100423.56;5197444;28;20029;-84
2023/07/16 00:54:21;;;;;;;0.20;0.20;;;;;;;21.38;61.78;100429.88;5192949;28;20052;-84
2023/07/16 00:57:11;;;;;;;0.83;0.77;;;;;;;21.35;61.63;100424.81;5194587;28;20463;-84
2023/07/16 01:00:03;;;;;;;1.20;1.08;;;;;;;21.35;61.05;100429.28;5193864;28;20283;-84
2023/07/16 01:02:54;;;;;;;0.30;0.30;;;;;;;21.37;60.77;100436.19;5208350;28;20021;-84
2023/07/16 01:06:06;;;;;;;0.25;0.25;;;;;;;21.27;62.56;100437.03;5194289;28;20295;-85
2023/07/16 01:09:18;;;;;;;0.20;0.20;;;;;;;21.24;61.57;100438.13;5210360;28;20056;-85
2023/07/16 01:12:10;;;;;;;0.28;0.28;;;;;;;21.15;62.79;100436.16;5192683;28;20044;-84
2023/07/16 01:15:00;;;;;;;0.50;0.45;;;;;;;21.31;61.83;100439.34;5208969;28;20114;-83
2023/07/16 01:17:51;;;;;;;0.60;0.60;;;;;;;21.32;61.33;100434.88;5227150;28;20029;-85
2023/07/16 01:20:42;;;;;;;0.30;0.30;;;;;;;21.22;61.21;100435.56;5213729;28;20694;-85
2023/07/16 01:24:02;;;;;;;0.40;0.40;;;;;;;21.29;60.73;100440.44;5208377;28;20561;-85
2023/07/16 01:27:44;;;;;;;2.10;1.38;;;;;;;21.30;60.70;100436.78;5203774;28;20127;-85
2023/07/16 01:30:39;;;;;;;0.30;0.30;;;;;;;21.31;60.27;100436.66;5175336;28;20248;-85
2023/07/16 01:33:32;;;;;;;0.60;0.60;;;;;;;21.29;60.78;100441.25;5199333;28;20040;-85
2023/07/16 01:36:24;;;;;;;2.15;0.80;;;;;;;21.29;60.77;100451.94;5190577;28;20068;-85
2023/07/16 01:39:16;;;;;;;1.10;1.00;;;;;;;21.30;60.63;100448.31;5192436;28;20136;-85
2023/07/16 01:42:07;;;;;;;6.00;1.30;;;;;;;21.30;60.59;100448.31;5198408;28;20035;-84
2023/07/16 01:44:57;;;;;;;0.30;0.30;;;;;;;21.26;61.74;100456.66;5194149;28;20032;-84
2023/07/16 01:47:54;;;;;;;2.92;1.35;;;;;;;21.29;61.17;100459.94;5196724;28;20032;-83
2023/07/16 01:50:45;;;;;;;0.30;0.30;;;;;;;21.03;62.88;100459.25;5219659;28;20033;-84
2023/07/16 01:53:36;;;;;;;0.40;0.40;;;;;;;20.81;63.73;100460.03;5215653;28;20021;-85
2023/07/16 01:56:27;;;;;;;0.25;0.25;;;;;;;20.95;62.61;100459.00;5200101;28;20542;-84
2023/07/16 01:59:17;;;;;;;0.20;0.20;;;;;;;20.84;62.75;100457.97;5190932;28;20036;-84
2023/07/16 02:02:08;;;;;;;0.20;0.20;;;;;;;20.99;61.35;100457.81;5197881;28;20033;-84
2023/07/16 02:04:59;;;;;;;0.30;0.30;;;;;;;20.64;63.21;100456.75;5216736;28;20044;-84
2023/07/16 02:07:50;;;;;;;0.40;0.40;;;;;;;20.82;61.75;100470.59;5204424;28;20079;-85
2023/07/16 02:10:41;;;;;;;0.20;0.20;;;;;;;20.66;62.55;100462.84;5231307;28;20029;-84
2023/07/16 02:13:32;;;;;;;0.35;0.35;;;;;;;20.55;62.52;100468.97;5202204;28;20029;-85
2023/07/16 02:16:23;;;;;;;1.98;1.55;;;;;;;20.64;61.87;100463.91;5211967;28;20087;-83
2023/07/16 02:19:14;;;;;;;0.20;0.20;;;;;;;20.24;63.21;100465.88;5210878;28;20113;-84
2023/07/16 02:22:05;;;;;;;0.45;0.45;;;;;;;20.54;61.76;100477.91;5197308;28;20037;-85
2023/07/16 02:24:55;;;;;;;0.88;0.85;;;;;;;20.26;62.17;100479.06;5196000;28;20041;-85
2023/07/16 02:27:46;;;;;;;0.98;0.63;;;;;;;20.27;62.29;100480.78;5198974;28;20555;-84
2023/07/16 02:30:37;;;;;;;1.88;0.90;;;;;;;20.25;62.23;100488.00;5209225;28;20025;-84
2023/07/16 02:33:28;;;;;;;0.28;0.28;;;;;;;20.24;62.08;100488.97;5214329;28;20024;-83
2023/07/16 02:36:18;;;;;;;0.20;0.20;;;;;;;20.33;61.50;100488.31;5216303;28;20032;-84
2023/07/16 02:39:09;;;;;;;0.65;0.65;;;;;;;20.26;61.65;100503.03;5210791;28;20051;-84
2023/07/16 02:42:00;;;;;;;1.17;0.68;;;;;;;20.26;61.42;100503.03;5213547;28;20029;-85
2023/07/16 02:44:51;;;;;;;0.20;0.20;;;;;;;20.18;61.41;100502.75;5197041;28;20043;-84
2023/07/16 02:47:41;;;;;;;0.30;0.30;;;;;;;20.01;61.59;100506.56;5211084;28;20230;-84
2023/07/16 02:50:37;;;;;;;1.80;0.40;;;;;;;19.85;61.53;100507.66;5211107;28;20639;-84
2023/07/16 02:53:27;;;;;;;1.65;1.13;;;;;;;20.06;60.99;100505.28;5227245;28;20048;-84
2023/07/16 02:56:18;;;;;;;0.73;0.73;;;;;;;19.77;61.45;100513.50;5227816;28;20037;-85
2023/07/16 02:59:09;;;;;;;1.75;0.98;;;;;;;19.85;61.12;100518.31;5196521;28;20044;-84
2023/07/16 03:02:00;;;;;;;0.30;0.30;;;;;;;20.03;60.31;100517.97;5208880;28;20033;-85
2023/07/16 03:04:51;;;;;;;0.20;0.20;;;;;;;19.77;60.76;100518.81;5194658;28;20098;-83
2023/07/16 03:07:42;;;;;;;0.30;0.30;;;;;;;19.81;60.44;100527.44;5214717;28;20017;-84
2023/07/16 03:10:33;;;;;;;0.30;0.30;;;;;;;19.78;60.46;100528.50;5196441;28;20028;-84
2023/07/16 03:13:24;;;;;;;0.10;0.10;;;;;;;19.95;60.08;100531.84;5209610;28;20081;-85
2023/07/16 03:16:14;;;;;;;0.80;0.63;;;;;;;19.86;59.92;100535.16;5195759;28;20400;-84
2023/07/16 03:19:06;;;;;;;1.17;0.98;;;;;;;19.77;60.50;100537.44;5195155;28;20044;-84
2023/07/16 03:21:56;;;;;;;0.20;0.20;;;;;;;19.91;59.60;100538.31;5215063;28;20132;-84
2023/07/16 03:24:47;;;;;;;0.25;0.25;;;;;;;19.63;60.39;100538.38;5190986;28;20033;-84
2023/07/16 03:27:38;;;;;;;0.20;0.20;;;;;;;19.52;60.43;100548.06;5208477;28;20021;-84
2023/07/16 03:30:31;;;;;;;0.30;0.30;;;;;;;19.65;59.90;100547.13;5194509;28;20389;-85
2023/07/16 03:33:21;;;;;;;0.65;0.65;;;;;;;19.62;60.07;100549.16;5210259;28;20033;-84
2023/07/16 03:36:12;;;;;;;1.10;0.82;;;;;;;19.61;59.57;100547.44;5228524;28;20064;-84
2023/07/16 03:39:03;;;;;;;0.43;0.43;;;;;;;19.62;59.66;100557.13;5210737;28;20155;-84
2023/07/16 03:41:54;;;;;;;0.30;0.30;;;;;;;19.37;60.31;100558.78;5211721;28;20036;-84
2023/07/16 03:44:45;;;;;;;0.47;0.47;;;;;;;19.57;59.40;100560.09;5231004;28;20021;-85
2023/07/16 03:47:36;;;;;;;0.65;0.65;;;;;;;19.66;58.98;100566.59;5209336;28;20128;-85
2023/07/16 03:50:27;;;;;;;0.28;0.28;;;;;;;19.65;58.84;100575.53;5195439;28;20033;-85
2023/07/16 03:53:17;;;;;;;0.20;0.20;;;;;;;19.52;59.13;100575.50;5206833;28;20029;-84
2023/07/16 03:56:08;;;;;;;0.20;0.20;;;;;;;19.48;59.36;100577.53;5207166;28;20445;-84
2023/07/16 03:58:59;;;;;;;0.20;0.20;;;;;;;19.36;59.20;100578.34;5194533;28;20035;-83
2023/07/16 04:01:50;;;;;;;0.82;0.45;;;;;;;19.35;59.23;100580.16;5205221;28;20129;-84
2023/07/16 04:04:40;;;;;;;0.82;0.82;;;;;;;19.33;59.17;100592.72;5190289;28;20047;-84
2023/07/16 04:07:31;;;;;;;0.52;0.52;;;;;;;19.45;58.66;100600.81;5196171;28;20035;-84
2023/07/16 04:10:22;;;;;;;0.52;0.52;;;;;;;19.32;59.07;100601.66;5191461;28;20571;-84
2023/07/16 04:13:13;;;;;;;0.20;0.20;;;;;;;19.34;58.83;100614.84;5206299;28;20036;-84
2023/07/16 04:16:04;;;;;;;0.20;0.20;;;;;;;19.09;60.10;100616.44;5205689;28;20053;-84
2023/07/16 04:18:54;;;;;;;0.52;0.52;;;;;;;19.19;59.60;100612.25;5196383;28;20051;-83
2023/07/16 04:21:45;;;;;;;0.20;0.20;;;;;;;19.38;59.15;100612.84;5204164;28;20025;-84
2023/07/16 04:24:36;;;;;;;0.30;0.30;;;;;;;19.24;59.64;100606.63;5203015;28;20029;-85
2023/07/16 04:27:27;;;;;;;0.38;0.38;;;;;;;19.50;58.78;100620.03;5204656;28;20102;-85
2023/07/16 04:30:18;;;;;;;2.72;2.00;;;;;;;19.17;59.75;100607.97;5195032;28;20431;-85
2023/07/16 04:33:09;;;;;;;0.30;0.30;;;;;;;19.41;59.04;100616.13;5201612;28;20115;-85
2023/07/16 04:36:00;;;;;;;0.20;0.20;;;;;;;19.41;58.82;100623.28;5212258;28;20512;-84
2023/07/16 04:38:51;;;;;;;0.45;0.45;;;;;;;19.12;60.02;100631.34;5212401;28;20029;-84
2023/07/16 04:41:41;;;;;;;0.90;0.90;;;;;;;19.33;59.24;100631.75;5210948;28;20309;-84
2023/07/16 04:44:32;;;;;;;0.40;0.40;;;;;;;19.19;59.58;100637.97;5192618;28;20064;-85
2023/07/16 04:47:23;;;;;;;0.82;0.82;;;;;;;19.25;59.41;100645.56;5217755;28;20084;-85
2023/07/16 04:50:14;;;;;;;0.52;0.35;;;;;;;19.25;59.40;100645.56;5213261;28;20037;-84
2023/07/16 04:53:05;;;;;;;0.50;0.50;;;;;;;19.26;59.17;100649.06;5200524;28;20049;-84
2023/07/16 04:55:56;;;;;;;0.28;0.28;;;;;;;19.28;59.03;100652.50;5197466;28;20041;-84
2023/07/16 04:58:47;;;;;;;1.48;1.25;;;;;;;19.17;59.50;100659.34;5215008;28;20017;-85
2023/07/16 05:01:38;;;;;;;0.32;0.32;;;;;;;19.16;59.34;100657.63;5210010;28;20025;-85
2023/07/16 05:04:29;;;;;;;0.20;0.20;;;;;;;19.31;58.94;100657.59;5202411;28;20044;-85
2023/07/16 05:07:19;;;;;;;0.30;0.30;;;;;;;19.02;59.48;100652.38;5194961;28;20021;-83
2023/07/16 05:10:11;;;;;;;0.80;0.80;;;;;;;19.29;58.46;100664.84;5190217;28;20030;-83
2023/07/16 05:13:03;;;;;;;0.40;0.40;;;;;;;19.15;58.91;100674.53;5206326;28;20412;-83
2023/07/16 05:15:54;;;;;;;0.50;0.50;;;;;;;19.10;59.13;100670.47;5209552;28;20049;-83
2023/07/16 05:18:45;;;;;;;0.52;0.52;;;;;;;18.95;59.21;100659.88;5191098;28;20048;-83
2023/07/16 05:21:36;;;;;;;0.68;0.68;;;;;;;18.57;59.75;100673.72;5201289;28;20017;-82
2023/07/16 05:24:28;;;;;;;4.75;1.95;;;;;;;18.63;59.54;100675.16;5192358;28;20116;-83
2023/07/16 05:27:19;;;;;;;1.90;0.95;;;;;;;18.70;59.54;100674.66;5229503;28;20514;-83
2023/07/16 05:30:10;;;;;;;0.20;0.20;;;;;;;18.78;59.15;100674.19;5198486;28;20330;-83
2023/07/16 05:33:00;;;;;;;1.40;1.30;;;;;;;18.64;59.40;100674.19;5214317;28;20032;-83
2023/07/16 05:35:51;;;;;;;0.35;0.30;;;;;;;18.61;59.43;100674.38;5215850;28;20052;-83
2023/07/16 05:38:42;;;;;;;0.63;0.63;;;;;;;18.74;59.42;100680.63;5212742;28;20028;-83
2023/07/16 05:41:33;;;;;;;0.57;0.50;;;;;;;18.80;59.20;100680.25;5211578;28;20021;-83
2023/07/16 05:44:23;;;;;;;1.45;0.57;;;;;;;18.83;58.88;100685.38;5216532;28;20187;-83
2023/07/16 05:47:14;;;;;;;1.55;0.95;;;;;;;18.85;59.35;100693.25;5197048;28;20408;-84
2023/07/16 05:50:06;;;;;;;0.80;0.80;;;;;;;18.83;58.74;100690.69;5212218;28;20140;-84
2023/07/16 05:52:56;;;;;;;0.28;0.28;;;;;;;18.79;58.86;100694.50;5215265;28;20056;-83
2023/07/16 05:55:49;;;;;;;0.20;0.20;;;;;;;18.90;58.24;100698.28;5215794;28;20025;-83
2023/07/16 05:58:41;;;;;;;2.33;1.42;;;;;;;18.88;58.66;100707.19;5210857;28;20025;-83
2023/07/16 06:01:31;;;;;;;1.13;1.02;;;;;;;18.75;58.58;100705.44;5198720;28;20048;-83
2023/07/16 06:04:22;;;;;;;0.60;0.60;;;;;;;18.83;58.65;100711.13;5209709;28;20040;-83
2023/07/16 06:07:13;;;;;;;0.70;0.70;;;;;;;18.98;58.21;100714.66;5199432;28;20408;-83
2023/07/16 06:10:04;;;;;;;1.05;0.77;;;;;;;18.95;58.11;100714.84;5194371;28;20068;-83
2023/07/16 06:12:55;;;;;;;1.17;0.60;;;;;;;18.84;58.40;100711.03;5206052;28;20025;-83
2023/07/16 06:15:49;;;;;;;1.95;0.80;;;;;;;18.95;58.31;100715.69;5199119;28;20338;-83
2023/07/16 06:18:40;;;;;;;0.50;0.50;;;;;;;18.83;57.59;100721.75;5197478;28;20036;-84
2023/07/16 06:21:31;;;;;;;0.65;0.60;;;;;;;18.79;57.44;100722.88;5197390;28;20116;-83
2023/07/16 06:24:21;;;;;;;0.20;0.20;;;;;;;18.79;57.47;100726.41;5195605;28;20052;-83
2023/07/16 06:27:12;;;;;;;0.75;0.75;;;;;;;18.81;58.28;100735.13;5211905;28;20024;-83
2023/07/16 06:30:05;;;;;;;1.80;0.85;;;;;;;18.71;56.69;100728.69;5229456;28;20029;-83
2023/07/16 06:32:56;;;;;;;0.43;0.43;;;;;;;18.73;57.08;100732.06;5212179;28;20048;-83
2023/07/16 06:35:47;;;;;;;1.08;1.00;;;;;;;18.88;56.67;100741.75;5213677;28;20029;-83
2023/07/16 06:38:38;;;;;;;4.25;1.02;;;;;;;18.81;56.91;100735.13;5208418;28;20025;-84
2023/07/16 06:41:30;;;;;;;0.60;0.60;;;;;;;18.77;57.00;100735.41;5195955;28;20083;-84
2023/07/16 06:44:22;;;;;;;0.40;0.40;;;;;;;18.73;56.71;100732.06;5198320;28;20033;-84
2023/07/16 06:47:13;;;;;;;0.45;0.45;;;;;;;18.84;57.21;100731.44;5202129;28;20048;-83
2023/07/16 06:50:04;;;;;;;0.50;0.50;;;;;;;18.77;56.75;100728.31;5221803;28;20607;-83
2023/07/16 06:52:55;;;;;;;0.50;0.50;;;;;;;18.72;56.93;100735.69;5218380;28;20041;-83
2023/07/16 06:55:48;;;;;;;0.30;0.30;;;;;;;18.85;57.30;100739.31;5202066;28;20052;-84
2023/07/16 06:58:39;;;;;;;;;;;;;;;18.83;55.49;100741.22;5217817;28;20092;-84
2023/07/16 07:01:30;;;;;;;0.40;0.40;;;;;;;18.77;56.37;100732.75;5222326;28;19905;-84
2023/07/16 07:04:21;;;;;;;0.77;0.77;;;;;;;18.77;55.75;100730.97;5222052;28;20109;-83
2023/07/16 07:07:11;;;;;;;0.65;0.65;;;;;;;18.78;55.92;100751.28;5217390;28;20048;-84
2023/07/16 07:10:02;;;;;;;0.40;0.40;;;;;;;18.83;55.74;100735.88;5197063;28;20103;-84
2023/07/16 07:12:53;;;;;;;0.90;0.90;;;;;;;18.80;55.82;100738.72;5216876;28;20025;-84
2023/07/16 07:15:44;;;;;;;0.50;0.50;;;;;;;18.94;55.29;100739.72;5217240;28;20627;-84
2023/07/16 07:18:35;;;;;;;0.93;0.80;;;;;;;18.88;54.97;100733.78;5198242;28;20060;-84
2023/07/16 07:21:25;;;;;;;0.85;0.75;;;;;;;18.98;55.16;100741.22;5212060;28;20025;-84
2023/07/16 07:24:16;;;;;;;0.63;0.63;;;;;;;18.93;55.26;100748.66;5192905;28;20037;-83
2023/07/16 07:27:07;;;;;;;0.60;0.60;;;;;;;19.01;55.04;100746.38;5195819;28;20093;-85
2023/07/16 07:29:58;;;;;;;0.63;0.63;;;;;;;19.06;54.75;100743.41;5196502;28;20346;-84
2023/07/16 07:32:48;;;;;;;0.70;0.70;;;;;;;18.94;55.39;100745.03;5210489;28;20060;-84
2023/07/16 07:35:39;;;;;;;2.95;0.73;;;;;;;18.88;55.04;100741.75;5196677;28;20033;-86
2023/07/16 07:38:30;;;;;;;0.30;0.30;;;;;;;19.05;54.74;100741.72;5208893;28;20033;-84
2023/07/16 07:41:21;;;;;;;0.30;0.30;;;;;;;19.09;54.26;100744.09;5225639;28;20036;-85
2023/07/16 07:44:12;;;;;;;0.40;0.40;;;;;;;19.07;54.29;100748.63;5212386;28;20041;-84
2023/07/16 07:47:04;;;;;;;0.85;0.85;;;;;;;19.10;54.36;100743.13;5214787;28;20031;-85
2023/07/16 07:49:54;;;;;;;0.40;0.40;;;;;;;19.16;54.78;100749.88;5209318;28;20037;-85
2023/07/16 07:52:45;;;;;;;1.23;1.13;;;;;;;19.13;54.17;100748.25;5194661;28;20408;-85
2023/07/16 07:55:36;;;;;;;1.15;0.95;;;;;;;19.10;55.00;100750.25;5209819;28;20447;-84
2023/07/16 07:58:27;;;;;;;4.43;1.40;;;;;;;19.26;55.48;100750.16;5201204;28;20032;-84
2023/07/16 08:01:18;;;;;;;0.32;0.32;;;;;;;19.29;54.81;100765.91;5194479;28;20033;-85
2023/07/16 08:04:08;;;;;;;0.50;0.50;;;;;;;19.25;53.55;100761.72;5211702;28;20050;-85
2023/07/16 08:06:59;;;;;;;0.57;0.57;;;;;;;19.36;53.10;100761.91;5199658;28;20029;-83
2023/07/16 08:09:50;;;;;;;0.68;0.68;;;;;;;19.38;53.28;100762.66;5226174;28;20037;-84
2023/07/16 08:12:41;;;;;;;0.52;0.40;;;;;;;19.21;53.58;100758.41;5196626;28;20024;-84
2023/07/16 08:15:32;;;;;;;1.27;1.17;;;;;;;19.34;53.46;100751.34;5209407;28;20149;-83
2023/07/16 08:18:23;;;;;;;0.88;0.88;;;;;;;19.40;52.79;100763.41;5197534;28;20556;-85
2023/07/16 08:21:19;;;;;;;0.38;0.38;;;;;;;19.49;52.76;100756.66;5199750;28;20025;-85
2023/07/16 08:24:10;;;;;;;0.43;0.43;;;;;;;19.61;51.99;100771.00;5193932;28;20041;-85
2023/07/16 08:27:01;;;;;;;0.52;0.52;;;;;;;19.51;50.99;100762.72;5194161;28;20040;-85
2023/07/16 08:29:52;;;;;;;0.28;0.28;;;;;;;19.56;51.50;100762.44;5202028;28;20504;-85
2023/07/16 08:32:42;;;;;;;2.30;0.50;;;;;;;19.64;52.44;100766.31;5206765;28;20061;-82
2023/07/16 08:35:34;;;;;;;0.38;0.38;;;;;;;19.74;51.97;100763.06;5221936;28;20128;-83
2023/07/16 08:38:26;;;;;;;0.45;0.45;;;;;;;19.79;51.65;100768.94;5218185;28;20202;-83
2023/07/16 08:41:17;;;;;;;4.55;1.00;;;;;;;19.77;51.70;100771.72;5201157;28;20122;-84
2023/07/16 08:44:08;;;;;;;0.57;0.57;;;;;;;19.93;52.17;100773.41;5202215;28;20056;-84
2023/07/16 08:46:59;;;;;;;0.73;0.52;;;;;;;19.95;51.50;100774.16;5212426;28;20053;-84
2023/07/16 08:50:00;;;;;;;0.43;0.43;;;;;;;20.00;50.95;100771.19;5203150;28;20140;-84
2023/07/16 08:52:52;;;;;;;0.47;0.47;;;;;;;20.08;50.51;100775.03;5224788;28;20067;-84
2023/07/16 08:55:44;;;;;;;0.90;0.90;;;;;;;20.17;50.67;100776.22;5203491;28;20578;-84
2023/07/16 08:58:37;;;;;;;2.08;1.13;;;;;;;20.26;51.08;100766.78;5202727;28;20111;-84
2023/07/16 09:01:28;;;;;;;2.57;1.27;;;;;;;20.20;49.84;100780.53;5206541;28;20088;-84
2023/07/16 09:04:19;;;;;;;1.98;1.00;;;;;;;20.30;50.15;100781.59;5203085;28;20295;-84
2023/07/16 09:07:10;;;;;;;1.23;0.80;;;;;;;20.24;49.54;100784.66;5191690;28;20090;-85
2023/07/16 09:10:01;;;;;;;0.77;0.77;;;;;;;20.41;50.30;100781.72;5189690;28;20025;-85
2023/07/16 09:12:51;;;;;;;1.25;1.25;;;;;;;20.48;49.71;100781.31;5189355;28;20040;-84
2023/07/16 09:15:44;;;;;;;0.35;0.30;;;;;;;20.33;48.79;100786.72;5207760;28;20120;-84
2023/07/16 09:18:35;;;;;;;0.90;0.55;;;;;;;20.35;48.80;100798.13;5190648;28;20443;-84
2023/07/16 09:21:28;;;;;;;1.95;1.65;;;;;;;20.45;49.03;100796.53;5210604;28;20025;-84
2023/07/16 09:24:19;;;;;;;1.08;0.98;;;;;;;20.56;49.35;100798.50;5193073;28;20044;-84
2023/07/16 09:27:12;;;;;;;0.93;0.93;;;;;;;20.70;49.54;100800.19;5213018;28;20199;-84
2023/07/16 09:30:05;;;;;;;1.00;0.93;;;;;;;20.82;49.23;100811.00;5193383;28;20044;-84
2023/07/16 09:32:56;;;;;;;0.50;0.50;;;;;;;20.70;48.53;100802.03;5203059;28;20033;-84
2023/07/16 09:35:50;;;;;;;0.20;0.20;;;;;;;20.53;49.17;100800.53;5193836;28;20037;-82
2023/07/16 09:38:41;;;;;;;0.60;0.60;;;;;;;20.69;49.15;100798.50;5197625;28;20018;-84
2023/07/16 09:41:33;;;;;;;0.57;0.57;;;;;;;20.70;49.61;100796.69;5194223;28;20032;-83
2023/07/16 09:44:24;;;;;;;0.63;0.63;;;;;;;20.54;50.10;100797.75;5197834;28;20040;-83
2023/07/16 09:47:14;;;;;;;0.90;0.65;;;;;;;20.64;49.50;100797.94;5205048;28;20021;-83
2023/07/16 09:50:06;;;;;;;0.43;0.43;;;;;;;20.71;49.33;100796.56;5190806;28;20044;-84
2023/07/16 09:52:57;;;;;;;0.85;0.80;;;;;;;20.75;49.42;100800.78;5188147;28;20033;-83
2023/07/16 09:55:49;;;;;;;0.30;0.30;;;;;;;20.81;48.48;100798.63;5204472;28;20044;-84
2023/07/16 09:58:40;;;;;;;0.52;0.50;;;;;;;20.80;48.47;100792.47;5188312;28;20503;-84
2023/07/16 10:01:31;;;;;;;3.38;1.10;;;;;;;21.01;49.04;100799.91;5204183;28;20117;-84
2023/07/16 10:04:22;;;;;;;0.40;0.40;;;;;;;21.03;48.82;100801.50;5189437;28;20471;-84
2023/07/16 10:07:26;;;;;;;0.73;0.70;;;;;;;20.93;48.41;100805.81;5223958;28;20029;-84
2023/07/16 10:10:17;;;;;;;0.52;0.52;;;;;;;20.92;47.22;100806.75;5193451;28;20104;-84
2023/07/16 10:13:12;;;;;;;0.60;0.60;;;;;;;20.97;47.33;100807.28;5199683;28;20029;-83
2023/07/16 10:16:02;;;;;;;0.70;0.70;;;;;;;20.94;47.18;100810.19;5210001;28;20346;-84
2023/07/16 10:18:53;;;;;;;0.28;0.28;;;;;;;20.99;47.03;100818.69;5206439;28;20060;-84
2023/07/16 10:21:45;;;;;;;0.30;0.30;;;;;;;21.14;47.11;100799.91;5208780;28;20511;-84
2023/07/16 10:24:38;;;;;;;1.45;1.35;;;;;;;21.21;46.74;100806.50;5207710;28;20056;-84
2023/07/16 10:27:30;;;;;;;;;;;;;;;21.30;46.80;100805.03;5196356;28;21053;-83
2023/07/16 10:30:22;;;;;;;3.85;0.75;;;;;;;21.31;46.21;100807.56;5212030;28;20430;-84
2023/07/16 10:33:12;;;;;;;1.02;0.93;;;;;;;21.22;45.84;100802.88;5206145;28;20037;-84
2023/07/16 10:36:03;;;;;;;1.88;0.85;;;;;;;21.36;45.85;100807.25;5223775;28;20183;-84
2023/07/16 10:38:54;;;;;;;0.80;0.80;;;;;;;21.61;45.58;100809.03;5206622;28;20052;-84
2023/07/16 10:41:45;;;;;;;0.20;0.20;;;;;;;21.82;46.08;100813.78;5207238;28;20025;-84
2023/07/16 10:44:36;;;;;;;0.55;0.43;;;;;;;21.70;45.41;100816.38;5204958;28;20060;-84
2023/07/16 10:47:31;;;;;;;0.65;0.52;;;;;;;21.65;45.36;100820.38;5203384;28;20032;-84
2023/07/16 10:50:22;;;;;;;0.20;0.20;;;;;;;21.66;45.86;100817.56;5204239;28;20988;-84
2023/07/16 10:53:13;;;;;;;0.90;0.88;;;;;;;21.80;45.41;100810.38;5202187;28;20037;-84
2023/07/16 10:56:04;;;;;;;1.20;1.10;;;;;;;21.96;45.16;100818.94;5221862;28;20676;-84
2023/07/16 10:58:55;;;;;;;0.60;0.60;;;;;;;21.84;44.51;100820.72;5190706;28;20056;-84
2023/07/16 11:01:46;;;;;;;0.50;0.50;;;;;;;21.75;44.54;100821.38;5204929;28;20496;-84
2023/07/16 11:04:37;;;;;;;0.55;0.55;;;;;;;21.99;44.47;100828.56;5204177;28;20104;-84
2023/07/16 11:07:27;;;;;;;1.48;1.38;;;;;;;22.08;44.32;100821.69;5192839;28;20025;-84
2023/07/16 11:10:18;;;;;;;3.22;1.40;;;;;;;22.10;44.27;100825.13;5227543;28;20033;-84
2023/07/16 11:13:09;;;;;;;0.73;0.73;;;;;;;22.10;44.82;100830.47;5192519;28;20031;-84
2023/07/16 11:16:10;;;;;;;1.95;1.50;;;;;;;22.21;44.63;100829.66;5206838;28;20362;-84
2023/07/16 11:19:07;;;;;;;2.22;1.27;;;;;;;22.54;43.81;100831.63;5190076;28;20039;-84
2023/07/16 11:22:00;;;;;;;0.25;0.25;;;;;;;22.52;43.60;100830.88;5221936;28;20035;-84
2023/07/16 11:24:52;;;;;;;0.32;0.32;;;;;;;22.44;43.34;100833.28;5192371;28;20519;-84
2023/07/16 11:27:43;;;;;;;0.20;0.20;;;;;;;22.30;43.14;100836.97;5203296;28;20115;-85
2023/07/16 11:30:34;;;;;;;0.65;0.43;;;;;;;22.51;43.11;100839.91;5191398;28;20090;-84
2023/07/16 11:33:35;;;;;;;1.17;1.17;;;;;;;22.45;43.16;100838.53;5190478;28;20721;-84
2023/07/16 11:36:28;;;;;;;0.30;0.30;;;;;;;22.26;43.35;100843.50;5184444;28;20630;-84
2023/07/16 11:39:20;;;;;;;1.17;1.10;;;;;;;22.36;43.39;100851.69;5190203;28;20128;-84
2023/07/16 11:42:10;;;;;;;2.33;1.75;;;;;;;22.47;43.98;100843.75;5204191;28;20029;-84
2023/07/16 11:45:03;;;;;;;0.20;0.20;;;;;;;22.41;43.45;100850.41;5196979;28;20099;-84
2023/07/16 11:47:54;;;;;;;1.10;0.95;;;;;;;22.45;44.17;100859.03;5191246;28;20106;-84
2023/07/16 11:50:45;;;;;;;0.68;0.68;;;;;;;22.53;42.36;100850.47;5203553;28;20048;-84
2023/07/16 11:53:36;;;;;;;0.60;0.60;;;;;;;22.38;42.82;100839.06;5188016;28;20025;-84
2023/07/16 11:56:27;;;;;;;1.55;1.25;;;;;;;22.45;43.29;100851.03;5189033;28;20044;-84
2023/07/16 11:59:20;;;;;;;0.40;0.40;;;;;;;22.48;43.01;100845.47;5200775;28;20036;-84
2023/07/16 12:02:12;;;;;;;0.40;0.40;;;;;;;22.57;42.96;100850.13;5187726;28;20106;-84
2023/07/16 12:05:03;;;;;;;0.47;0.47;;;;;;;22.41;42.34;100852.25;5201883;28;20098;-84
2023/07/16 12:07:54;;;;;;;0.20;0.20;;;;;;;22.44;42.36;100838.63;5195306;28;20039;-85
2023/07/16 12:10:45;;;;;;;0.45;0.45;;;;;;;22.47;42.58;100849.09;5192015;28;20043;-85
2023/07/16 12:13:36;;;;;;;0.22;0.22;;;;;;;22.68;42.53;100840.44;5192421;28;20059;-85
2023/07/16 12:16:27;;;;;;;7.13;0.57;;;;;;;22.65;41.65;100852.19;5207268;28;20056;-85
2023/07/16 12:19:18;;;;;;;0.50;0.50;;;;;;;22.53;41.07;100840.59;5192480;28;20041;-84
2023/07/16 12:22:09;;;;;;;0.30;0.30;;;;;;;22.45;41.15;100853.69;5194449;28;20048;-84
2023/07/16 12:25:00;;;;;;;0.60;0.60;;;;;;;22.52;41.95;100848.75;5225945;28;20044;-83
2023/07/16 12:27:51;;;;;;;0.50;0.50;;;;;;;22.71;41.74;100857.09;5197840;28;20029;-84
2023/07/16 12:30:41;;;;;;;0.20;0.20;;;;;;;22.83;41.74;100841.91;5212718;28;20037;-84
2023/07/16 12:33:32;;;;;;;0.30;0.30;;;;;;;22.75;41.52;100847.84;5195578;28;20025;-84
2023/07/16 12:36:23;;;;;;;0.45;0.45;;;;;;;22.87;41.58;100848.72;5194559;28;20079;-85
2023/07/16 12:39:14;;;;;;;0.43;0.43;;;;;;;22.83;41.44;100841.91;5207735;28;20029;-84
2023/07/16 12:42:05;;;;;;;0.52;0.52;;;;;;;22.95;41.64;100843.63;5194679;28;20025;-84
2023/07/16 12:44:56;;;;;;;0.63;0.63;;;;;;;23.02;40.99;100853.84;5207150;28;20049;-85
2023/07/16 12:47:47;;;;;;;0.40;0.40;;;;;;;22.86;40.78;100855.03;5207403;28;20024;-83
2023/07/16 12:50:37;;;;;;;0.30;0.30;;;;;;;22.86;41.09;100849.69;5191529;28;20026;-85
2023/07/16 12:53:28;;;;;;;0.68;0.43;;;;;;;;;;5221886;28;20044;-84
2023/07/16 12:56:19;;;;;;;0.40;0.40;;;;;;;22.75;40.91;100863.91;5207616;28;20211;-84
2023/07/16 12:59:10;;;;;;;0.55;0.52;;;;;;;22.81;40.89;100854.56;5210406;28;20044;-84
2023/07/16 13:02:01;;;;;;;2.53;1.83;;;;;;;22.97;41.68;100853.38;5207123;28;20035;-85
2023/07/16 13:04:53;;;;;;;1.58;1.33;;;;;;;22.90;40.63;100851.16;5226640;28;20060;-86
2023/07/16 13:07:43;;;;;;;2.40;0.93;;;;;;;23.07;41.60;100857.03;5211673;28;20025;-85
2023/07/16 13:10:35;;;;;;;0.30;0.30;;;;;;;23.11;41.43;100861.16;5208272;28;20569;-85
2023/07/16 13:13:25;;;;;;;1.13;0.95;;;;;;;23.09;41.90;100849.75;5227741;28;20077;-85
2023/07/16 13:16:16;;;;;;;0.35;0.35;;;;;;;23.05;41.01;100861.66;5195744;28;20084;-85
2023/07/16 13:19:07;;;;;;;0.52;0.52;;;;;;;23.03;41.65;100863.59;5198076;28;20033;-85